2013 Michigan Titanium
Half Aquabike
MaleAll
 Pos Name Time CategoryCat pos Gndr pos Swim Swim pace T1 Cycle Cycle pace T2 Run Run Pace Penalty 
   
1CRICKET HOWARD03:10:11All1100:31:151:37 sec/100m00:01:1402:37:4121.3 m/hr    
2CRAIG HOOGERWERF03:11:23All2200:30:351:35 sec/100m00:01:4402:39:0221.1 m/hr    
4J.R. VANDERWALL03:19:01All3300:28:481:29 sec/100m00:01:5302:48:1920.0 m/hr    
5BRETT FOLKERT03:19:08All4400:35:451:51 sec/100m00:01:0902:42:1320.7 m/hr    
6DOUG BAILEY03:25:41All5500:39:442:03 sec/100m00:01:4902:44:0720.5 m/hr    
7CHRISTIAN GLUPKER03:27:13All6600:38:552:00 sec/100m00:01:4202:46:3620.2 m/hr    
8THOMAS KEIZER03:32:07All7700:38:472:00 sec/100m00:02:0302:51:1619.6 m/hr    
9JONATHAN OLDFIELD03:33:36All8800:41:072:07 sec/100m00:01:3802:50:5019.7 m/hr    
10DAVID LAGRAND03:34:02All9900:33:551:45 sec/100m00:02:2502:57:4118.9 m/hr    
11AARON VAN DRIE03:37:37All101000:41:432:09 sec/100m00:01:5602:53:5619.3 m/hr    
12MATTHEW CLARIN03:43:03All111100:36:241:53 sec/100m00:01:5803:04:4018.2 m/hr    
16MARK REED03:50:37All121200:44:062:17 sec/100m00:04:0003:02:3018.4 m/hr    
17JUSTIN BIEBEL03:55:45All131300:38:542:00 sec/100m00:05:0103:07:4817.9 m/hr   +00:04:00
18ROB BLAKE03:56:36All141400:46:092:23 sec/100m00:02:5503:07:3117.9 m/hr    
20BRIAN HOUTSMA04:01:19All151500:39:542:04 sec/100m00:02:4703:14:3717.3 m/hr   +00:04:00
23MARC SCHULZ04:10:20All161600:48:432:31 sec/100m00:02:5403:18:4216.9 m/hr    
24ALAN PRIEST04:14:46All171700:46:322:24 sec/100m00:01:5203:26:2016.3 m/hr    
26PHILLIP BEDNAREK04:19:29All181800:53:522:47 sec/100m00:04:4203:20:5416.7 m/hr    
27ANDREW HARTZ04:23:36All191900:44:522:19 sec/100m00:02:5803:35:4515.6 m/hr    
28THOMAS SKUNDA04:29:54All202000:41:042:07 sec/100m00:07:4003:41:0915.2 m/hr    
36STEFFEN GENTHE05:03:50All212100:54:312:49 sec/100m00:06:4104:02:3613.8 m/hr    
37STEPHEN PETERS05:34:35All222200:36:161:52 sec/100m00:15:5904:42:1911.9 m/hr    
39JIM OLDFIELD06:33:36All232300:57:422:59 sec/100m00:03:3305:32:2010.1 m/hr    
FemaleAll
 Pos Name Time CategoryCat pos Gndr pos Swim Swim pace T1 Cycle Cycle pace T2 Run Run Pace Penalty 
   
3ANGIE O'BRIEN03:16:20All1100:33:551:45 sec/100m00:01:0402:41:2020.8 m/hr    
13JULIE PARRISH03:48:17All2200:41:252:08 sec/100m00:01:3403:05:1818.1 m/hr    
14NICOLE BYL03:49:17All3300:33:341:44 sec/100m00:02:0803:13:3417.4 m/hr    
1
FemaleAll
 Pos Name Time CategoryCat pos Gndr pos Swim Swim pace T1 Cycle Cycle pace T2 Run Run Pace Penalty 
   
15MONIKA GIBSON03:50:01All4400:47:362:27 sec/100m00:02:1403:00:1018.6 m/hr    
19LORETTA HOLMES04:01:11All5500:50:432:37 sec/100m00:01:4503:08:4317.8 m/hr    
21AMY COLBY04:05:02All6600:48:022:29 sec/100m00:02:1203:14:4717.2 m/hr    
22GABRIELE GOTTLIEB04:05:49All7700:42:482:12 sec/100m00:02:4003:20:2016.8 m/hr    
25CHRISTINA MORALES04:19:03All8800:46:292:24 sec/100m00:04:3503:27:5816.2 m/hr    
29KAREN MAXWELL04:32:25All9900:54:082:48 sec/100m00:03:0403:35:1215.6 m/hr    
30MAGGIE DUNHAM04:45:16All101000:45:562:22 sec/100m00:05:1603:54:0314.4 m/hr    
31EMILY DURHAM04:48:46All111100:50:562:38 sec/100m00:03:1803:54:3114.3 m/hr    
32DEBRA BYL04:51:34All121200:49:432:34 sec/100m00:04:1903:57:3114.1 m/hr    
33JAN MACK04:57:13All131300:54:112:48 sec/100m00:04:0503:58:5614.1 m/hr    
34KATHY BENOIT04:58:12All141400:45:252:21 sec/100m00:02:3304:10:1313.4 m/hr    
35AMY GENTHE05:03:48All151500:46:292:24 sec/100m00:14:4604:02:3213.9 m/hr    
38ELAYNE PETERS05:34:35All161600:48:172:30 sec/100m00:04:0004:42:1711.9 m/hr    
2